Terminal Aerodrome Forecast
Issued by NWS Sioux Falls, SD

Home | Current Version | Previous Version | Text Only | Print | Product List | Glossary On
Versions: 1 2 3 4 5 6 7 8 9 10 11 12 13 14 15 16 17 18 19 20 21 22 23 24 25 26 27 28 29
770
FTUS43 KFSD 291720
TAFSUX
TAF
KSUX 291720Z 2918/3018 05016G24KT P6SM BKN100
     FM292300 04017G25KT P6SM OVC060
     FM300400 03015G22KT P6SM -RA OVC040
     FM300600 03016G23KT 6SM RA OVC025
     FM301300 03020G28KT 5SM RA OVC012=

USA.gov is the U.S. government's official web portal to all federal, state and local government web resources and services.